Terminal Aerodrome Forecast
Issued by NWS Boise, ID

Home | Current Version | Previous Version | Text Only | Print | Product List | Glossary On
Versions: 1 2 3 4 5 6 7 8 9 10 11 12 13 14 15 16 17 18 19
000
FTUS45 KBOI 171531 AAD
TAFBOI
TAF AMD
KBOI 171531Z 1716/1812 VRB06KT 1/2SM BCFG VV001
     FM171630 14010KT P6SM VCFG FEW002
     FM172000 14013G22KT P6SM BKN150
     FM180000 14013KT P6SM BKN150=

USA.gov is the U.S. government's official web portal to all federal, state and local government web resources and services.